To NAV CANADA Home Page Login to a new session Search on AWWS site Feedback and Comments Disclaimer Vers la page française équivalente Tips FAQ What's new on the site To the Forecasts and Observations / NOTAM section To "File a Flight Plan" website Publications and other links Update of the User's profile FIC Telephone Numbers My Weather Data Folder Route Weather Data Regional Weather Data Local Weather Data To the Forecasts and Observations / NOTAM section
Request Generated 04/25/2014 at 02:24:35 UTC . Weather information available at that time is displayed.

METAR/TAF

BURWASH LANDING/BURWASH/YT    

METAR CYDB 250200Z AUTO 11010G16KT 9SM FEW095 SCT110 05/M02 A2953 RMK
SLP035=
METAR CYDB 250100Z AUTO 11012G20KT 9SM CLR 05/M01 A2953 RMK SLP032=
METAR CYDB 250000Z AUTO 11013G18KT 9SM CLR 05/M01 A2953 RMK SLP034=

TAF CYDB 242338Z 2500/2512 12010KT P6SM SCT030 BKN060 TEMPO 2500/2507
P6SM -SHRA BKN030
FM250700 14005KT P6SM SCT060
RMK NXT FCST BY 250600Z=
Your time UTC time
Weather data provided by Environment Canada and NAV CANADA